This is the latest recevied weather packets stored in our database for station/object IT9CYW-10. If no packets are shown the sender has not sent any weather packets the latest 10 day(s).
| Time | Temp. | Humidity | Pressure | Rain* | Wind** | Luminosity | Snow |
|---|---|---|---|---|---|---|---|
| 1777623186 | 18.89° C | 75% | 999.7 hPa | - | - | 152 W/m² | - |
| 1777622285 | 18.89° C | 75% | 999.5 hPa | - | - | 346 W/m² | - |
| 1777621385 | 17.78° C | 79% | 999.4 hPa | - | - | 232 W/m² | - |
| 1777620485 | 17.78° C | 79% | 999.2 hPa | - | - | 446 W/m² | - |
| 1777619585 | 17.22° C | 82% | 999.2 hPa | - | - | 163 W/m² | - |
| 1777618685 | 16.67° C | 85% | 999 hPa | - | - | 57 W/m² | - |
| 1777617784 | 16.67° C | 85% | 999.2 hPa | - | - | 33 W/m² | - |
| 1777616884 | 17.22° C | 85% | 999 hPa | - | - | 17 W/m² | - |
| 1777615984 | 17.22° C | 83% | 998.7 hPa | - | - | 97 W/m² | - |
| 1777615084 | 16.11° C | 86% | 998.9 hPa | - | - | 101 W/m² | - |
| 1777614184 | 15.56° C | 86% | 998.9 hPa | - | - | 55 W/m² | - |
| 1777612386 | 15° C | 88% | 998.5 hPa | - | - | 24 W/m² | - |
| 1777611485 | 14.44° C | 89% | 998.5 hPa | - | - | 20 W/m² | - |
| 1777610585 | 14.44° C | 89% | 998.2 hPa | - | - | 16 W/m² | - |
| 1777609685 | 13.89° C | 88% | 998.2 hPa | - | - | 7 W/m² | - |
| 1777608785 | 13.89° C | 88% | 998 hPa | - | - | 3 W/m² | - |
| 1777607884 | 13.89° C | 89% | 997.7 hPa | - | - | 0 W/m² | - |
| 1777606984 | 13.89° C | 88% | 997.9 hPa | - | - | 0 W/m² | - |
| 1777606084 | 13.89° C | 88% | 997.7 hPa | - | - | 0 W/m² | - |
| 1777605184 | 13.89° C | 87% | 998 hPa | - | - | 0 W/m² | - |
| 1777604283 | 13.89° C | 86% | 997.7 hPa | - | - | 0 W/m² | - |
| 1777603383 | 13.89° C | 86% | 997.9 hPa | - | - | 0 W/m² | - |
| 1777602483 | 13.89° C | 86% | 998 hPa | - | - | 0 W/m² | - |
| 1777601583 | 13.89° C | 88% | 998 hPa | - | - | 0 W/m² | - |
| 1777600683 | 13.33° C | 90% | 998 hPa | - | - | 0 W/m² | - |
* Rain since midnight (hover to see other rain measurements)
** Current wind speed in m/s (hover to see current wind gust speed)